Burns, Colorado
Current Conditions -  °F | °C
As of 12:55 AM on Wednesday 22 Oct 2014 (Local Time) from KEGE Reporting Station
Overcast Overcast  
Wind Chill: 38°   Ceiling: 6000
Heat Index: 45°   Visibility: 10mi
Dew Point: 41°   Wind: 13mph
Humidity: 87%   Direction: 270°W
Pressure: 30.17"   Gusts: NA
Location:  39.87°N, 106.89°W
Report Text: KEGE 220655Z AUTO 27011KT 10SM FEW040 OVC060 07/05 A3017 RMK AO1
Loading
Personal Weather Stations






























Interactive Weather Map
Tropical Storm Tracking
New forecast layout! Learn more

10-Day Weather Forecast

Advertisements
Track Severe Weather on mobile